CheckWX is a tool to help pilots better visualize weather data.  It is not intended as a substitute for an official pre-flight weather briefing.

04:50:13 UTC

KDWH METAR
David Wayne Hooks Memorial Airport
Houston, Texas, USA
Current

57 mins ago

KDWH 160353Z AUTO 17006KT 10SM FEW024 28/22 A2992 RMK AO2 SLP129 T02780222
Observed
Jun-16 @ 03:53 UTC
Wind
  • 170° at 6 KTS
Visibility
10 SM
Flight Rules
VFR
Cloud Levels
  • Few at 2,400' AGL
Temperature
28°C / 82°F
Dewpoint
22°C / 72°F
Heat Index
30°C / 86°F
Humidity
70%
Altimeter
29.92" Hg
Pressure
1013.22 hPa
Previous

2 hours ago

KDWH 160253Z AUTO 17006KT 10SM CLR 28/21 A2990 RMK AO2 SLP123 T02830211 53014
Observed
Jun-16 @ 02:53 UTC
Wind
  • 170° at 6 KTS
Visibility
10 SM
Flight Rules
VFR
Cloud Levels
  • Clear skies
Temperature
28°C / 82°F
Dewpoint
21°C / 70°F
Heat Index
30°C / 86°F
Humidity
66%
Altimeter
29.9" Hg
Pressure
1012.52 hPa
Previous

3 hours ago

KDWH 160153Z 17009G17KT 10SM FEW037 29/21 A2988 RMK AO2 SLP115 T02890211
Observed
Jun-16 @ 01:53 UTC
Wind
  • 170° at 9 KTS
  • Gusting to 17 KTS
Visibility
10 SM
Flight Rules
VFR
Cloud Levels
  • Few at 3,700' AGL
Temperature
29°C / 84°F
Dewpoint
21°C / 70°F
Heat Index
31°C / 88°F
Humidity
62%
Altimeter
29.88" Hg
Pressure
1011.82 hPa